Stations météo

réclame
Mon MeteoGroup
Wijk aan Zee, Pays-Bas (6257): Température de l'air & dewpoint: 17.07.2018 17:00:00 - 23.07.2018 17:00:00 (CEST)Wijk aan Zee, Pays-Bas (6257): Température de l'air 5cm: 17.07.2018 17:00:00 - 23.07.2018 17:00:00 (CEST)Wijk aan Zee, Pays-Bas (6257): Quantités de précipitations: 17.07.2018 17:00:00 - 23.07.2018 17:00:00 (CEST)
Date & Time tt [°C] td [°C] tt 5cm [°C] rr [mm]
23.07.2018 17:00:00 25,0 16,2 28,6 0,0
23.07.2018 16:00:00 23,9 15,5 29,2 0,0
23.07.2018 15:00:00 24,9 15,0 29,7 0,0
23.07.2018 14:00:00 23,5 14,3 28,8 0,0
23.07.2018 13:00:00 23,5 14,5 28,2 0,0
23.07.2018 12:00:00 22,9 14,3 27,1 0,0
23.07.2018 11:00:00 21,7 15,0 25,6 0,0
23.07.2018 10:00:00 21,6 13,9 24,5 0,0
23.07.2018 09:00:00 20,8 13,1 23,4 0,0
23.07.2018 08:00:00 19,3 15,9 20,1 0,0
23.07.2018 07:00:00 13,6 13,2 12,5 0,0
23.07.2018 06:00:00 11,1 10,5 10,5 0,0
23.07.2018 05:00:00 11,8 11,4 10,7 0,0
23.07.2018 04:00:00 11,9 11,3 11,2 0,0
23.07.2018 03:00:00 12,3 11,6 11,5 0,0
23.07.2018 02:00:00 12,8 12,1 12,2 0,0
23.07.2018 01:00:00 13,6 12,7 13,0 0,0
23.07.2018 00:00:00 14,3 12,9 14,3 0,0
22.07.2018 23:00:00 17,1 14,6 16,7 0,0
22.07.2018 22:00:00 17,4 14,5 17,3 0,0
22.07.2018 21:00:00 18,4 14,4 19,4 0,0
22.07.2018 20:00:00 19,6 14,8 21,8 0,0
22.07.2018 19:00:00 20,5 13,5 23,3 0,0
22.07.2018 18:00:00 21,3 15,6 25,0 0,0
22.07.2018 17:00:00 21,4 16,2 25,8 0,0
22.07.2018 16:00:00 22,2 16,9 26,4 0,0
22.07.2018 15:00:00 22,4 16,8 26,7 0,0
22.07.2018 14:00:00 22,3 15,5 26,9 0,0
22.07.2018 13:00:00 22,6 14,1 26,1 0,0
22.07.2018 12:00:00 21,6 14,3 25,5 0,0
22.07.2018 11:00:00 21,1 14,3 23,8 0,0
22.07.2018 10:00:00 20,1 15,9 22,6 0,0
22.07.2018 09:00:00 19,7 15,7 21,7 0,0
22.07.2018 08:00:00 19,1 15,9 19,2 0,0
22.07.2018 07:00:00 18,1 15,9 16,8 0,0
22.07.2018 06:00:00 14,0 13,2 13,1 0,0
22.07.2018 05:00:00 15,8 14,7 14,8 0,0
22.07.2018 04:00:00 17,7 16,2 16,9 0,0
22.07.2018 03:00:00 17,8 16,6 17,1 0,0
22.07.2018 02:00:00 17,8 17,0 15,7 0,0
22.07.2018 01:00:00 14,4 12,9 13,4 0,0
22.07.2018 00:00:00 17,0 13,7 16,1 0,0
21.07.2018 23:00:00 17,7 13,5 16,8 0,0
21.07.2018 22:00:00 18,5 13,7 17,8 0,0
21.07.2018 21:00:00 19,0 16,0 19,4 0,0
21.07.2018 20:00:00 19,7 15,8 21,2 0,0
21.07.2018 19:00:00 20,2 16,5 22,3 0,0
21.07.2018 18:00:00 20,6 16,6 23,6 0,0
21.07.2018 17:00:00 21,0 15,8 24,5 0,0
21.07.2018 16:00:00 21,2 15,8 25,1 0,0
21.07.2018 15:00:00 22,0 16,6 26,6 0,0
21.07.2018 14:00:00 21,6 16,7 25,4 0,0
21.07.2018 13:00:00 21,9 16,7 26,4 0,0
21.07.2018 12:00:00 21,5 16,5 25,1 0,0
21.07.2018 11:00:00 21,0 16,6 24,3 0,0
21.07.2018 10:00:00 21,1 16,8 23,1 0,0
21.07.2018 09:00:00 20,9 14,7 23,3 0,0
21.07.2018 08:00:00 19,6 14,5 20,5 0,0
21.07.2018 07:00:00 17,2 13,4 16,3 0,0
21.07.2018 06:00:00 16,2 12,9 15,4 0,0
21.07.2018 05:00:00 16,0 12,5 14,8 0,0
21.07.2018 04:00:00 15,5 12,5 14,7 0,0
21.07.2018 03:00:00 15,7 13,0 15,3 0,0
21.07.2018 02:00:00 16,6 12,9 16,0 0,0
21.07.2018 01:00:00 17,8 14,7 16,3 0,0
21.07.2018 00:00:00 16,1 13,9 15,3 0,0
20.07.2018 23:00:00 17,6 16,4 17,0 0,0
20.07.2018 22:00:00 18,5 16,5 18,2 0,0
20.07.2018 21:00:00 19,4 15,5 19,9 0,0
20.07.2018 20:00:00 20,5 13,4 22,1 0,0
20.07.2018 19:00:00 20,9 14,6 22,4 0,0
20.07.2018 18:00:00 21,8 13,6 25,2 0,0
20.07.2018 17:00:00 21,6 13,8 25,7 0,0
20.07.2018 16:00:00 21,9 16,1 25,9 0,0
20.07.2018 15:00:00 22,1 14,1 27,0 0,0
20.07.2018 14:00:00 21,7 13,0 25,0 0,0
20.07.2018 13:00:00 22,5 11,8 27,3 0,0
20.07.2018 12:00:00 21,1 13,0 25,2 0,0
20.07.2018 11:00:00 22,3 10,3 25,8 0,0
20.07.2018 10:00:00 21,1 11,7 24,0 0,0
20.07.2018 09:00:00 18,7 13,5 20,7 0,0
20.07.2018 08:00:00 17,0 13,6 17,1 0,0
20.07.2018 07:00:00 14,7 12,7 13,8 0,0
20.07.2018 06:00:00 14,0 12,3 12,7 0,0
20.07.2018 05:00:00 14,0 12,7 12,8 0,0
20.07.2018 04:00:00 13,6 12,6 11,6 0,0
20.07.2018 03:00:00 13,8 12,7 12,4 0,0
20.07.2018 02:00:00 14,4 12,9 12,9 0,0
20.07.2018 01:00:00 14,8 13,3 13,7 0,0
20.07.2018 00:00:00 15,1 13,5 13,8 0,0
19.07.2018 23:00:00 15,4 13,1 14,0 0,0
19.07.2018 22:00:00 17,0 13,1 16,5 0,0
19.07.2018 21:00:00 19,3 15,1 19,5 0,0
19.07.2018 20:00:00 19,7 15,6 21,0 0,0
19.07.2018 19:00:00 20,9 14,5 23,4 0,0
19.07.2018 18:00:00 20,8 14,6 24,1 0,0
19.07.2018 17:00:00 20,0 14,9 22,4 0,0
19.07.2018 16:00:00 21,2 15,3 25,4 0,0
19.07.2018 15:00:00 20,9 15,9 25,3 0,0
19.07.2018 14:00:00 20,9 15,8 25,1 0,0
19.07.2018 13:00:00 20,4 15,9 25,0 0,0
19.07.2018 12:00:00 21,2 14,6 25,6 0,0
19.07.2018 11:00:00 20,8 14,8 24,4 0,0
19.07.2018 10:00:00 20,2 14,9 23,3 0,0
19.07.2018 09:00:00 19,5 16,0 21,5 0,0
19.07.2018 08:00:00 17,8 16,9 17,6 0,0
19.07.2018 07:00:00 14,3 13,7 12,4 0,0
19.07.2018 06:00:00 13,2 12,8 11,0 0,0
19.07.2018 05:00:00 14,5 14,3 12,6 0,0
19.07.2018 04:00:00 15,2 14,8 13,2 0,0
19.07.2018 03:00:00 15,1 14,8 12,1 0,0
19.07.2018 02:00:00 13,8 13,2 12,9 0,0
19.07.2018 01:00:00 14,8 13,8 14,2 0,0
19.07.2018 00:00:00 15,2 13,6 14,9 0,0
18.07.2018 23:00:00 16,1 14,1 16,3 0,0
18.07.2018 22:00:00 17,5 14,5 17,4 0,0
18.07.2018 21:00:00 18,8 13,8 19,8 0,0
18.07.2018 20:00:00 19,4 14,4 20,9 0,0
18.07.2018 19:00:00 19,3 14,5 21,5 0,0
18.07.2018 18:00:00 20,8 13,6 23,9 0,0
18.07.2018 17:00:00 20,7 13,5 24,7 0,0
18.07.2018 16:00:00 20,7 14,6 25,2 0,0
18.07.2018 15:00:00 21,3 14,2 25,5 0,0
18.07.2018 14:00:00 21,5 15,7 24,3 0,0
18.07.2018 13:00:00 20,9 16,1 23,7 0,0
18.07.2018 12:00:00 20,4 16,2 23,1 0,0
18.07.2018 11:00:00 20,2 15,7 22,1 0,0
18.07.2018 10:00:00 19,0 15,2 20,9 0,0
18.07.2018 09:00:00 18,8 15,2 20,1 0,0
18.07.2018 08:00:00 18,2 14,8 18,4 0,0
18.07.2018 07:00:00 17,1 14,9 16,3 0,0
18.07.2018 06:00:00 16,5 13,8 - 0,0
18.07.2018 05:00:00 15,9 13,6 - 0,0
18.07.2018 04:00:00 15,8 13,9 - 0,0
18.07.2018 03:00:00 15,3 13,5 - 0,0
18.07.2018 02:00:00 12,5 11,7 - 0,0
18.07.2018 01:00:00 12,6 11,7 - 0,0
18.07.2018 00:00:00 13,8 12,4 - 0,0
17.07.2018 23:00:00 16,5 13,4 - 0,0
17.07.2018 22:00:00 17,5 13,4 - 0,0
17.07.2018 21:00:00 18,3 13,6 - 0,0
17.07.2018 20:00:00 18,9 13,9 - 0,0
17.07.2018 19:00:00 19,6 13,0 - 0,0
17.07.2018 18:00:00 20,2 13,5 23,2 0,0
17.07.2018 17:00:00 19,9 13,8 22,8 0,0

tt = Température de l'air
td = dewpoint
tt 5cm = Température de l'air 5cm
rr = Quantités de précipitations

stations d'obs. à proximité